Time;durP1;ratioP1;P1;durP2;ratioP2;P2;SDS_P1;SDS_P2;PMS_P1;PMS_P2;Temp;Humidity;BMP_temperature;BMP_pressure;BME280_temperature;BME280_humidity;BME280_pressure;Samples;Min_cycle;Max_cycle;Signal;HPM_P1;HPM_P2
2021/01/29 13:11:24;;;;;;;86.72;43.83;;;;;;;;;;5032998;28;20030;-72
2021/01/29 13:13:49;;;;;;;79.97;41.15;;;;;;;;;;5032401;28;20063;-72
2021/01/29 13:16:24;;;;;;;78.97;40.33;;;;;;;;;;5034933;28;20079;-72
2021/01/29 13:18:50;;;;;;;87.38;42.15;;;;;;;;;;5034637;28;20053;-72
2021/01/29 13:21:27;;;;;;;80.25;40.08;;;;;;;;;;5034238;28;20034;-71
2021/01/29 13:23:57;;;;;;;76.53;38.47;;;;;;;;;;5033864;28;20540;-72
2021/01/29 13:26:34;;;;;;;59.50;30.70;;;;;;;;;;5032376;28;20018;-72
2021/01/29 13:29:17;;;;;;;51.55;25.20;;;;;;;;;;5029117;28;20029;-64
2021/01/29 13:31:43;;;;;;;47.92;23.15;;;;;;;;;;5032984;28;20026;-65
2021/01/29 13:34:20;;;;;;;42.58;23.52;;;;;;;;;;5033892;28;20349;-65
2021/01/29 13:36:58;;;;;;;39.50;22.30;;;;;;;;;;5031800;28;20021;-64
2021/01/29 13:39:24;;;;;;;153.85;76.18;;;;;;;;;;5033923;28;20462;-64
2021/01/29 13:41:52;;;;;;;175.70;78.93;;;;;;;;;;5032446;28;20064;-65
2021/01/29 13:44:18;;;;;;;116.05;58.05;;;;;;;;;;5032824;28;20044;-64
2021/01/29 13:46:49;;;;;;;118.53;70.07;;;;;;;;;;5033875;28;20107;-65
2021/01/29 13:49:23;;;;;;;113.28;59.35;;;;;;;;;;5034292;28;20033;-65
2021/01/29 13:51:52;;;;;;;118.93;56.83;;;;;;;;;;5027398;28;20029;-64
2021/01/29 13:54:26;;;;;;;125.80;55.53;;;;;;;;;;5032011;28;20025;-64
2021/01/29 13:56:53;;;;;;;76.00;33.83;;;;;;;;;;5032908;28;20104;-65
2021/01/29 13:59:26;;;;;;;55.25;26.77;;;;;;;;;;5033328;28;20014;-65
2021/01/29 14:01:58;;;;;;;38.65;21.00;;;;;;;;;;5033541;28;20541;-65
2021/01/29 14:04:37;;;;;;;46.85;25.77;;;;;;;;;;5032213;28;20030;-65
2021/01/29 14:07:02;;;;;;;47.42;27.05;;;;;;;;;;5033428;28;20033;-65
2021/01/29 14:09:28;;;;;;;36.15;21.08;;;;;;;;;;5032861;28;20028;-65
2021/01/29 14:12:02;;;;;;;49.22;25.98;;;;;;;;;;5030822;28;20400;-65
2021/01/29 14:14:39;;;;;;;87.85;43.38;;;;;;;;;;5031390;28;20021;-65
2021/01/29 14:17:23;;;;;;;79.22;44.58;;;;;;;;;;5030659;28;20041;-64
2021/01/29 14:19:49;;;;;;;102.43;60.55;;;;;;;;;;5018201;28;20029;-65
2021/01/29 14:22:23;;;;;;;60.55;35.75;;;;;;;;;;5032770;28;20375;-65
2021/01/29 14:24:49;;;;;;;69.80;40.75;;;;;;;;;;5029731;28;20037;-69
2021/01/29 14:27:20;;;;;;;80.43;44.42;;;;;;;;;;5033069;28;20017;-70
2021/01/29 14:29:50;;;;;;;69.82;40.63;;;;;;;;;;5030428;28;20467;-70
2021/01/29 14:32:19;;;;;;;59.80;34.95;;;;;;;;;;5029904;28;20079;-70
2021/01/29 14:34:56;;;;;;;47.03;28.52;;;;;;;;;;5030357;28;20108;-70
2021/01/29 14:37:24;;;;;;;42.50;24.80;;;;;;;;;;5030384;28;20486;-70
2021/01/29 14:39:59;;;;;;;134.80;70.95;;;;;;;;;;5029277;28;20127;-70
2021/01/29 14:42:27;;;;;;;109.57;58.17;;;;;;;;;;5030667;28;20044;-70
2021/01/29 14:45:16;;;;;;;139.65;81.20;;;;;;;;;;5032076;28;20026;-70
2021/01/29 14:47:50;;;;;;;107.38;63.80;;;;;;;;;;5015882;28;20034;-70
2021/01/29 14:50:19;;;;;;;198.52;116.78;;;;;;;;;;5030107;28;20033;-70
2021/01/29 14:52:50;;;;;;;164.63;99.57;;;;;;;;;;5031329;28;20028;-70
2021/01/29 14:55:21;;;;;;;179.88;110.78;;;;;;;;;;5032133;28;20025;-65
2021/01/29 14:57:47;;;;;;;193.55;122.57;;;;;;;;;;5033223;28;20025;-65
2021/01/29 15:00:17;;;;;;;124.82;78.25;;;;;;;;;;5033046;28;20021;-65
2021/01/29 15:02:53;;;;;;;121.30;71.28;;;;;;;;;;5031142;28;20045;-65
2021/01/29 15:05:30;;;;;;;100.43;63.88;;;;;;;;;;5032836;28;20476;-65
2021/01/29 15:07:56;;;;;;;73.57;45.08;;;;;;;;;;5032986;28;20029;-65
2021/01/29 15:10:27;;;;;;;105.85;60.28;;;;;;;;;;5033029;28;20467;-65
2021/01/29 15:12:53;;;;;;;104.20;66.13;;;;;;;;;;5031851;28;20502;-65
2021/01/29 15:15:19;;;;;;;65.93;37.90;;;;;;;;;;5032323;28;20053;-65
2021/01/29 15:17:57;;;;;;;96.47;59.33;;;;;;;;;;5032177;28;20404;-65
2021/01/29 15:20:30;;;;;;;87.18;49.28;;;;;;;;;;5032937;28;20033;-64
2021/01/29 15:23:14;;;;;;;86.75;47.50;;;;;;;;;;5031360;28;20026;-65
2021/01/29 15:26:00;;;;;;;191.10;105.93;;;;;;;;;;5031540;28;20107;-65
2021/01/29 15:28:25;;;;;;;121.75;74.43;;;;;;;;;;5014668;28;20064;-65
2021/01/29 15:30:52;;;;;;;138.45;88.65;;;;;;;;;;5031112;28;20025;-64
2021/01/29 15:33:37;;;;;;;129.35;69.88;;;;;;;;;;5032460;28;20033;-64
2021/01/29 15:36:11;;;;;;;118.10;57.70;;;;;;;;;;5032602;28;20030;-64
2021/01/29 15:38:40;;;;;;;116.65;54.80;;;;;;;;;;5036069;28;20029;-64
2021/01/29 15:41:24;;;;;;;228.38;110.60;;;;;;;;;;5036005;28;20104;-64
2021/01/29 15:43:51;;;;;;;489.30;247.10;;;;;;;;;;5036044;28;20057;-64
2021/01/29 15:46:35;;;;;;;227.65;101.90;;;;;;;;;;5035912;28;20029;-64
2021/01/29 15:49:04;;;;;;;529.75;265.40;;;;;;;;;;5035924;28;20029;-64
2021/01/29 15:51:49;;;;;;;538.60;290.43;;;;;;;;;;5035947;28;20040;-65
2021/01/29 15:54:24;;;;;;;314.10;190.30;;;;;;;;;;5035921;28;20282;-64
2021/01/29 15:57:03;;;;;;;156.82;92.03;;;;;;;;;;5035817;28;20037;-64
2021/01/29 15:59:38;;;;;;;101.78;54.95;;;;;;;;;;5035726;28;20112;-64
2021/01/29 16:02:09;;;;;;;109.53;60.33;;;;;;;;;;5035750;28;20033;-64
2021/01/29 16:04:48;;;;;;;106.80;59.33;;;;;;;;;;5035632;28;20120;-64
2021/01/29 16:07:16;;;;;;;111.20;59.00;;;;;;;;;;5035632;28;20119;-64
2021/01/29 16:09:47;;;;;;;92.50;49.08;;;;;;;;;;5035675;28;20383;-64
2021/01/29 16:12:27;;;;;;;76.28;39.78;;;;;;;;;;5035544;28;20060;-63
2021/01/29 16:14:54;;;;;;;61.17;35.08;;;;;;;;;;5035518;28;20033;-64
2021/01/29 16:17:21;;;;;;;55.35;33.47;;;;;;;;;;5035008;28;20123;-68
2021/01/29 16:19:47;;;;;;;59.35;35.15;;;;;;;;;;5035367;28;20031;-68
2021/01/29 16:22:21;;;;;;;62.28;33.95;;;;;;;;;;5034449;28;20465;-69
2021/01/29 16:24:49;;;;;;;54.22;30.88;;;;;;;;;;5035640;28;20383;-68
2021/01/29 16:27:20;;;;;;;58.83;32.80;;;;;;;;;;5035534;28;20040;-68
2021/01/29 16:29:46;;;;;;;65.72;34.88;;;;;;;;;;5034496;28;20022;-69
2021/01/29 16:32:14;;;;;;;68.25;35.65;;;;;;;;;;5035075;28;20014;-50
2021/01/29 16:34:39;;;;;;;114.72;53.92;;;;;;;;;;5034792;28;20030;-69
2021/01/29 16:37:13;;;;;;;119.07;55.10;;;;;;;;;;5034951;28;20036;-68
2021/01/29 16:39:47;;;;;;;110.32;49.72;;;;;;;;;;5034342;28;20026;-68
2021/01/29 16:42:20;;;;;;;108.90;49.83;;;;;;;;;;5035115;28;20026;-69
2021/01/29 16:44:45;;;;;;;186.40;71.00;;;;;;;;;;5035183;28;20048;-68
2021/01/29 16:47:36;;;;;;;152.20;58.10;;;;;;;;;;5035035;28;20045;-69
2021/01/29 16:50:22;;;;;;;92.70;40.63;;;;;;;;;;5029639;28;20053;-69
2021/01/29 16:52:57;;;;;;;92.03;41.35;;;;;;;;;;5034829;28;20508;-71
2021/01/29 16:55:23;;;;;;;136.00;52.40;;;;;;;;;;5033713;28;20036;-71
2021/01/29 16:57:55;;;;;;;136.25;52.95;;;;;;;;;;5035009;28;20019;-71
2021/01/29 17:00:22;;;;;;;117.75;50.67;;;;;;;;;;5035118;28;20507;-71
2021/01/29 17:02:50;;;;;;;74.68;37.53;;;;;;;;;;5035187;28;20025;-71
2021/01/29 17:05:20;;;;;;;64.00;32.88;;;;;;;;;;5034685;28;20026;-71
2021/01/29 17:07:47;;;;;;;74.72;34.60;;;;;;;;;;5033689;28;20153;-71
2021/01/29 17:10:20;;;;;;;67.90;31.88;;;;;;;;;;5034142;28;20041;-71
2021/01/29 17:12:47;;;;;;;76.05;35.15;;;;;;;;;;5032445;28;20049;-69
2021/01/29 17:15:15;;;;;;;92.72;43.13;;;;;;;;;;5034427;28;20017;-69
2021/01/29 17:17:41;;;;;;;158.88;63.83;;;;;;;;;;5033925;28;20128;-69
2021/01/29 17:20:07;;;;;;;186.45;73.03;;;;;;;;;;5033873;28;20495;-69
2021/01/29 17:22:34;;;;;;;334.05;107.25;;;;;;;;;;5034419;28;20033;-69
2021/01/29 17:25:05;;;;;;;310.52;97.68;;;;;;;;;;5032985;28;20038;-69
2021/01/29 17:27:31;;;;;;;;;;;;;;;;;;5034508;28;20021;-69
2021/01/29 17:30:00;;;;;;;425.55;117.85;;;;;;;;;;5034152;28;20366;-68
2021/01/29 17:32:32;;;;;;;498.75;134.27;;;;;;;;;;5034015;28;20460;-68
2021/01/29 17:35:00;;;;;;;633.75;172.77;;;;;;;;;;5033269;28;20388;-68
2021/01/29 17:37:27;;;;;;;733.30;204.32;;;;;;;;;;5034203;28;20017;-68
2021/01/29 17:39:53;;;;;;;684.97;186.55;;;;;;;;;;5034196;28;20029;-69
2021/01/29 17:42:19;;;;;;;655.78;195.07;;;;;;;;;;5033976;28;20025;-67
2021/01/29 17:45:07;;;;;;;354.83;96.10;;;;;;;;;;5034244;28;20045;-68
2021/01/29 17:47:35;;;;;;;277.83;77.45;;;;;;;;;;5028628;28;20518;-68
2021/01/29 17:50:20;;;;;;;258.80;68.78;;;;;;;;;;5033438;28;20020;-68
2021/01/29 17:52:48;;;;;;;229.70;92.97;;;;;;;;;;5026153;28;20488;-68
2021/01/29 17:55:22;;;;;;;172.25;84.45;;;;;;;;;;5033941;28;20010;-68
2021/01/29 17:57:48;;;;;;;158.05;86.32;;;;;;;;;;5033851;28;20025;-68
2021/01/29 18:00:18;;;;;;;107.32;60.67;;;;;;;;;;5033736;28;20079;-68
2021/01/29 18:02:57;;;;;;;151.35;86.20;;;;;;;;;;5034137;28;20090;-68
2021/01/29 18:05:23;;;;;;;140.48;82.43;;;;;;;;;;5032538;28;20036;-68
2021/01/29 18:08:04;;;;;;;88.75;48.03;;;;;;;;;;5032426;28;20164;-68
2021/01/29 18:10:34;;;;;;;93.30;46.72;;;;;;;;;;5032291;28;20458;-68
2021/01/29 18:13:12;;;;;;;85.60;46.47;;;;;;;;;;5033451;28;20026;-68
2021/01/29 18:15:37;;;;;;;114.45;46.70;;;;;;;;;;5033525;28;20026;-68
2021/01/29 18:18:04;;;;;;;94.65;40.72;;;;;;;;;;5032795;28;20082;-68
2021/01/29 18:20:30;;;;;;;66.15;32.00;;;;;;;;;;5032230;28;20499;-68
2021/01/29 18:22:56;;;;;;;66.95;34.50;;;;;;;;;;5033042;28;20172;-69
2021/01/29 18:25:22;;;;;;;51.53;29.90;;;;;;;;;;5032797;28;20072;-70
2021/01/29 18:27:54;;;;;;;56.75;31.10;;;;;;;;;;5033348;28;20103;-69
2021/01/29 18:30:21;;;;;;;66.20;34.33;;;;;;;;;;5031801;28;20029;-69
2021/01/29 18:32:47;;;;;;;45.33;26.55;;;;;;;;;;5033521;28;20021;-69
2021/01/29 18:35:14;;;;;;;45.00;24.65;;;;;;;;;;5032947;28;20025;-69
2021/01/29 18:37:39;;;;;;;46.80;26.20;;;;;;;;;;5033110;28;20110;-70
2021/01/29 18:40:06;;;;;;;56.42;29.85;;;;;;;;;;5031954;28;20072;-69
2021/01/29 18:42:32;;;;;;;63.25;34.22;;;;;;;;;;5033001;28;20108;-69
2021/01/29 18:44:57;;;;;;;68.47;32.45;;;;;;;;;;5032958;28;20527;-70
2021/01/29 18:47:23;;;;;;;69.00;32.70;;;;;;;;;;5032228;28;20077;-70
2021/01/29 18:49:49;;;;;;;64.63;32.95;;;;;;;;;;5033241;28;20040;-70
2021/01/29 18:52:16;;;;;;;58.80;31.70;;;;;;;;;;5033097;28;20021;-69
2021/01/29 18:54:42;;;;;;;87.03;42.00;;;;;;;;;;5033551;28;20053;-70
2021/01/29 18:57:08;;;;;;;91.13;41.25;;;;;;;;;;5033135;28;20017;-70
2021/01/29 18:59:33;;;;;;;79.15;38.75;;;;;;;;;;5033196;28;20083;-70
2021/01/29 19:01:59;;;;;;;65.40;32.03;;;;;;;;;;5033271;28;20029;-70
2021/01/29 19:04:26;;;;;;;66.55;33.50;;;;;;;;;;5032940;28;20033;-69
2021/01/29 19:06:51;;;;;;;176.52;60.03;;;;;;;;;;5032460;28;20022;-69
2021/01/29 19:09:20;;;;;;;123.90;48.45;;;;;;;;;;5033032;28;20413;-69
2021/01/29 19:11:46;;;;;;;155.35;56.13;;;;;;;;;;5034031;28;20032;-69
2021/01/29 19:14:13;;;;;;;75.15;33.83;;;;;;;;;;5036398;28;20029;-69
2021/01/29 19:16:39;;;;;;;72.88;35.47;;;;;;;;;;5036627;28;20020;-69
2021/01/29 19:19:04;;;;;;;68.57;35.97;;;;;;;;;;5036681;28;20054;-69
2021/01/29 19:21:30;;;;;;;70.80;37.15;;;;;;;;;;5036704;28;20026;-69
2021/01/29 19:23:57;;;;;;;79.80;43.53;;;;;;;;;;5036472;28;20029;-69
2021/01/29 19:26:25;;;;;;;71.68;40.05;;;;;;;;;;5036377;28;20499;-67
2021/01/29 19:28:53;;;;;;;70.72;40.03;;;;;;;;;;5036478;28;20033;-68
2021/01/29 19:31:19;;;;;;;72.85;37.85;;;;;;;;;;5035847;28;20551;-68
2021/01/29 19:33:45;;;;;;;66.43;35.13;;;;;;;;;;5036151;28;20041;-68
2021/01/29 19:36:10;;;;;;;62.55;32.47;;;;;;;;;;5036239;28;20017;-68
2021/01/29 19:38:36;;;;;;;50.70;28.00;;;;;;;;;;5036602;28;20076;-68
2021/01/29 19:41:02;;;;;;;60.17;31.38;;;;;;;;;;5035705;28;20021;-68
2021/01/29 19:43:29;;;;;;;55.50;28.17;;;;;;;;;;5035987;28;20036;-68
2021/01/29 19:45:54;;;;;;;51.92;28.05;;;;;;;;;;5035939;28;20026;-68
2021/01/29 19:48:20;;;;;;;51.30;27.25;;;;;;;;;;5036651;28;20029;-68
2021/01/29 19:50:46;;;;;;;56.50;32.28;;;;;;;;;;5035764;28;20017;-68
2021/01/29 19:53:12;;;;;;;64.05;35.28;;;;;;;;;;5035639;28;20033;-68
2021/01/29 19:55:38;;;;;;;72.20;40.38;;;;;;;;;;5034762;28;20014;-68
2021/01/29 19:58:04;;;;;;;73.35;38.33;;;;;;;;;;5034866;28;20034;-68
2021/01/29 20:00:32;;;;;;;67.10;35.58;;;;;;;;;;5028545;28;20018;-68
2021/01/29 20:02:59;;;;;;;68.43;35.53;;;;;;;;;;5032416;28;20033;-68
2021/01/29 20:05:25;;;;;;;62.97;34.70;;;;;;;;;;5032444;28;20025;-68
2021/01/29 20:07:52;;;;;;;56.30;32.03;;;;;;;;;;5032306;28;20112;-68
2021/01/29 20:10:19;;;;;;;55.67;31.70;;;;;;;;;;5031852;28;20029;-69
2021/01/29 20:12:48;;;;;;;50.53;28.70;;;;;;;;;;5031376;28;20380;-68
2021/01/29 20:15:17;;;;;;;47.10;26.48;;;;;;;;;;5035705;28;20116;-69
2021/01/29 20:17:42;;;;;;;45.33;25.27;;;;;;;;;;5035218;28;20033;-69
2021/01/29 20:20:08;;;;;;;44.05;24.38;;;;;;;;;;5035490;28;20163;-68
2021/01/29 20:22:34;;;;;;;43.33;23.25;;;;;;;;;;5035228;28;20084;-67
2021/01/29 20:24:59;;;;;;;44.88;24.63;;;;;;;;;;5035144;28;20505;-67
2021/01/29 20:27:25;;;;;;;40.75;24.05;;;;;;;;;;5035773;28;20032;-67
2021/01/29 20:29:50;;;;;;;54.13;33.28;;;;;;;;;;5035734;28;20025;-67
2021/01/29 20:32:16;;;;;;;52.42;30.92;;;;;;;;;;5067445;28;20356;-67
2021/01/29 20:34:43;;;;;;;36.17;21.63;;;;;;;;;;5035635;28;20025;-67
2021/01/29 20:37:08;;;;;;;46.53;25.50;;;;;;;;;;5034333;28;20018;-67
2021/01/29 20:39:35;;;;;;;41.17;22.95;;;;;;;;;;5035349;28;20032;-67
2021/01/29 20:42:01;;;;;;;47.20;26.88;;;;;;;;;;5035152;28;20032;-68
2021/01/29 20:44:28;;;;;;;40.63;23.00;;;;;;;;;;5033982;28;20033;-68
2021/01/29 20:46:53;;;;;;;50.38;35.60;;;;;;;;;;5033974;28;20031;-68
2021/01/29 20:49:20;;;;;;;46.00;26.13;;;;;;;;;;5033866;28;20037;-68
2021/01/29 20:51:45;;;;;;;47.20;24.98;;;;;;;;;;5033757;28;20452;-68
2021/01/29 20:54:12;;;;;;;46.55;27.42;;;;;;;;;;5033404;28;20036;-68
2021/01/29 20:56:42;;;;;;;62.58;37.40;;;;;;;;;;5034295;28;20017;-69
2021/01/29 20:59:07;;;;;;;60.10;33.78;;;;;;;;;;5035069;28;20349;-68
2021/01/29 21:01:33;;;;;;;51.55;28.75;;;;;;;;;;5033596;28;20076;-68
2021/01/29 21:03:59;;;;;;;53.42;30.92;;;;;;;;;;5033043;28;20025;-68
2021/01/29 21:06:25;;;;;;;51.67;28.38;;;;;;;;;;5034656;28;20021;-68
2021/01/29 21:08:52;;;;;;;55.80;32.67;;;;;;;;;;5034902;28;20042;-68
2021/01/29 21:11:19;;;;;;;48.00;26.35;;;;;;;;;;5034962;28;20372;-68
2021/01/29 21:13:47;;;;;;;49.17;28.10;;;;;;;;;;5034710;28;20036;-68
2021/01/29 21:16:12;;;;;;;49.05;27.80;;;;;;;;;;5033393;28;20392;-68
2021/01/29 21:18:39;;;;;;;69.15;39.50;;;;;;;;;;5034788;28;20049;-68
2021/01/29 21:21:04;;;;;;;106.38;59.42;;;;;;;;;;5034471;28;20036;-68
2021/01/29 21:23:30;;;;;;;55.58;32.47;;;;;;;;;;5016918;28;20029;-68
2021/01/29 21:25:56;;;;;;;47.03;27.73;;;;;;;;;;5034394;28;20017;-68
2021/01/29 21:28:23;;;;;;;56.40;35.38;;;;;;;;;;5034624;28;20060;-68
2021/01/29 21:30:48;;;;;;;85.72;54.97;;;;;;;;;;5034360;28;20556;-69
2021/01/29 21:33:15;;;;;;;72.13;47.25;;;;;;;;;;5034272;28;20116;-69
2021/01/29 21:35:45;;;;;;;54.10;32.67;;;;;;;;;;5033894;28;20040;-69
2021/01/29 21:38:12;;;;;;;43.92;26.60;;;;;;;;;;5034272;28;20033;-69
2021/01/29 21:40:38;;;;;;;42.92;24.55;;;;;;;;;;5034127;28;20091;-69
2021/01/29 21:43:04;;;;;;;42.95;23.08;;;;;;;;;;5033095;28;20026;-69
2021/01/29 21:45:33;;;;;;;44.60;25.80;;;;;;;;;;5034388;28;20053;-69
2021/01/29 21:48:03;;;;;;;52.65;25.30;;;;;;;;;;5034304;28;20034;-69
2021/01/29 21:50:28;;;;;;;42.20;21.95;;;;;;;;;;5034334;28;20021;-69
2021/01/29 21:52:54;;;;;;;87.30;46.25;;;;;;;;;;5032284;28;20349;-69
2021/01/29 21:55:19;;;;;;;132.90;62.83;;;;;;;;;;5034126;28;20044;-69
2021/01/29 21:57:47;;;;;;;133.63;68.97;;;;;;;;;;5034208;28;20042;-69
2021/01/29 22:00:14;;;;;;;45.65;25.48;;;;;;;;;;5032882;28;20020;-68
2021/01/29 22:02:40;;;;;;;71.43;43.33;;;;;;;;;;5033825;28;20029;-68
2021/01/29 22:05:09;;;;;;;43.58;24.52;;;;;;;;;;5033816;28;20021;-69
2021/01/29 22:07:35;;;;;;;46.03;28.55;;;;;;;;;;5033675;28;20061;-68
2021/01/29 22:10:01;;;;;;;40.83;26.85;;;;;;;;;;5016218;28;20025;-68
2021/01/29 22:12:26;;;;;;;44.67;28.23;;;;;;;;;;5033664;28;20523;-68
2021/01/29 22:14:52;;;;;;;42.50;26.85;;;;;;;;;;5033686;28;20022;-68
